createdAt,value
2019-05-16T05:31:02.657Z,12.43
2019-05-16T05:33:34.537Z,14.24
2019-05-16T06:10:52.394Z,14.25
2019-05-16T06:13:24.683Z,15.98
2019-05-16T06:15:57.517Z,17.46
2019-05-16T06:18:32.221Z,18.71
2019-05-16T06:21:06.092Z,19.88
2019-05-16T06:23:40.134Z,21.10
2019-05-16T06:26:12.284Z,22.40
2019-05-16T06:28:44.339Z,22.38
2019-05-16T06:31:22.029Z,21.51
2019-05-16T06:33:55.764Z,20.77
2019-05-16T06:36:31.222Z,20.17
2019-05-16T06:39:07.007Z,19.67
2019-05-16T06:41:40.162Z,19.19
2019-05-16T06:44:14.281Z,18.68
2019-05-16T06:47:00.371Z,19.58
2019-05-16T06:49:19.814Z,21.03
2019-05-16T06:51:55.149Z,22.26
2019-05-16T06:54:29.889Z,23.05
2019-05-16T06:57:02.025Z,22.41
2019-05-16T06:59:36.332Z,21.65
2019-05-16T07:02:10.861Z,21.02
2019-05-16T07:04:42.052Z,20.50
2019-05-16T07:07:15.251Z,19.99
2019-05-16T07:10:00.168Z,19.50
2019-05-16T07:12:25.178Z,19.06
2019-05-16T07:15:01.246Z,18.63
2019-05-16T07:17:39.698Z,19.43
2019-05-16T07:20:13.162Z,20.91
2019-05-16T07:22:50.290Z,21.99
2019-05-16T07:25:31.701Z,21.92
2019-05-16T07:28:05.651Z,21.10
2019-05-16T07:30:40.698Z,20.46
2019-05-16T07:33:11.775Z,19.89
2019-05-16T07:35:43.591Z,19.44
2019-05-16T07:38:20.031Z,19.23
2019-05-16T07:40:51.598Z,20.65
2019-05-16T07:43:26.258Z,22.08
2019-05-16T07:46:00.223Z,22.15
2019-05-16T07:48:35.720Z,21.37
2019-05-16T07:51:11.043Z,20.67
2019-05-16T07:53:51.907Z,20.13
2019-05-16T07:56:36.126Z,19.64
2019-05-16T07:59:25.362Z,19.15
2019-05-16T08:02:02.963Z,18.72
2019-05-16T08:04:45.395Z,19.82
2019-05-16T08:07:25.431Z,21.36
2019-05-16T08:09:59.741Z,21.62
2019-05-16T08:12:33.021Z,20.94
2019-05-16T08:15:12.698Z,20.33
2019-05-16T08:17:51.259Z,19.79
2019-05-16T08:20:24.456Z,19.37
2019-05-16T08:23:00.907Z,19.01
2019-05-16T08:25:50.451Z,19.72
2019-05-16T08:28:24.656Z,21.41
2019-05-16T08:30:56.562Z,21.67
2019-05-16T08:33:34.777Z,21.02
2019-05-16T08:36:11.103Z,20.41
2019-05-16T08:38:47.001Z,19.89
2019-05-16T08:41:24.423Z,19.46
2019-05-16T08:44:01.230Z,19.06
2019-05-16T08:46:43.562Z,18.95
2019-05-16T08:49:16.099Z,20.55
2019-05-16T08:51:53.148Z,21.96
2019-05-16T08:54:27.247Z,22.02
2019-05-16T08:57:20.809Z,21.13
2019-05-16T08:59:44.356Z,20.43
2019-05-16T09:02:33.526Z,19.82
2019-05-16T09:05:05.163Z,19.30
2019-05-16T09:07:36.452Z,19.57
2019-05-16T09:10:42.660Z,20.98
2019-05-16T09:12:43.660Z,22.01
2019-05-16T09:15:17.059Z,21.92
2019-05-16T09:17:49.085Z,21.07
2019-05-16T09:20:21.074Z,20.44
2019-05-16T09:22:52.934Z,19.84
2019-05-16T09:25:27.429Z,19.26
2019-05-16T09:27:58.687Z,18.75
2019-05-16T09:30:30.339Z,18.52
2019-05-16T09:33:02.119Z,19.61
2019-05-16T09:35:37.020Z,20.77
2019-05-16T09:38:08.126Z,21.93
2019-05-16T09:40:39.877Z,21.72
2019-05-16T09:43:11.658Z,20.94
2019-05-16T09:45:43.400Z,20.19
2019-05-16T09:48:18.433Z,19.62
2019-05-16T09:50:49.483Z,19.15
2019-05-16T09:53:21.155Z,18.68
2019-05-16T09:55:53.155Z,18.33
2019-05-16T09:58:27.545Z,18.91
2019-05-16T10:00:59.432Z,20.13
2019-05-16T10:03:31.121Z,20.95
2019-05-16T10:06:02.963Z,20.86
2019-05-16T10:08:37.446Z,20.17
2019-05-16T10:11:09.540Z,19.65
2019-05-16T10:13:41.323Z,19.23
2019-05-16T10:16:13.077Z,18.88
2019-05-16T10:18:47.374Z,19.65
2019-05-16T10:21:20.664Z,21.26
2019-05-16T10:23:51.762Z,22.65
2019-05-16T10:26:23.546Z,22.60
2019-05-16T10:28:58.397Z,21.78
2019-05-16T10:31:41.342Z,21.16
2019-05-16T10:34:07.432Z,20.67
2019-05-16T10:36:38.747Z,20.20
2019-05-16T10:39:10.621Z,19.77
2019-05-16T10:41:42.941Z,19.40
2019-05-16T10:44:17.229Z,19.10
2019-05-16T10:46:48.502Z,20.02
2019-05-16T10:49:33.390Z,21.69
2019-05-16T10:51:54.032Z,21.85
2019-05-16T10:54:27.590Z,21.22
2019-05-16T10:56:59.460Z,20.71
2019-05-16T11:02:07.560Z,19.89
2019-05-16T11:04:53.845Z,19.54
2019-05-16T11:07:13.122Z,19.25
2019-05-16T11:09:55.785Z,20.15
2019-05-16T11:12:20.541Z,21.85
2019-05-16T11:14:51.799Z,22.15
2019-05-16T11:17:27.650Z,21.57
2019-05-16T11:19:58.409Z,21.14
2019-05-16T11:22:32.285Z,20.71
2019-05-16T11:25:20.247Z,20.34
2019-05-16T11:27:39.177Z,19.99
2019-05-16T11:30:13.579Z,19.65
2019-05-16T11:32:46.913Z,19.34
2019-05-16T11:35:19.313Z,20.22
2019-05-16T11:37:52.013Z,21.78
2019-05-16T11:40:24.414Z,22.10
2019-05-16T11:43:06.675Z,21.57
2019-05-16T11:45:29.527Z,21.09
2019-05-16T11:48:01.273Z,20.78
2019-05-16T11:50:36.988Z,20.51
2019-05-16T11:53:07.544Z,20.29
2019-05-16T11:55:51.899Z,20.06
2019-05-16T11:58:12.845Z,19.81
2019-05-16T12:00:44.626Z,19.58
2019-05-16T12:03:17.198Z,19.40
2019-05-16T12:05:49.044Z,20.47
2019-05-16T12:08:21.792Z,22.21
2019-05-16T12:10:53.866Z,22.64
2019-05-16T12:13:32.374Z,22.13
2019-05-16T12:15:59.172Z,21.67
2019-05-16T12:18:31.520Z,21.22
2019-05-16T12:21:03.269Z,20.91
2019-05-16T12:23:37.268Z,20.64
2019-05-16T12:26:10.630Z,20.39
2019-05-16T12:28:42.270Z,20.12
2019-05-16T12:31:17.127Z,19.85
2019-05-16T12:33:48.063Z,19.60
2019-05-16T12:36:21.443Z,19.30
2019-05-16T12:38:57.586Z,19.05
2019-05-16T12:41:29.376Z,18.80
2019-05-16T12:44:01.114Z,19.72
2019-05-16T12:46:32.879Z,21.30
2019-05-16T12:49:07.028Z,21.53
2019-05-16T12:51:38.255Z,20.98
2019-05-16T12:54:10.000Z,20.48
2019-05-16T12:56:41.755Z,20.09
2019-05-16T12:59:20.582Z,19.81
2019-05-16T13:01:48.264Z,19.53
2019-05-16T13:04:20.385Z,19.27
2019-05-16T13:06:52.130Z,19.01
2019-05-16T13:09:26.378Z,19.51
2019-05-16T13:11:57.822Z,20.88
2019-05-16T13:14:29.872Z,22.01
2019-05-16T13:17:01.638Z,22.01
2019-05-16T13:19:34.690Z,21.51
2019-05-16T13:22:07.693Z,21.07
2019-05-16T13:24:39.250Z,20.79
2019-05-16T13:27:11.126Z,20.52
2019-05-16T13:29:47.498Z,20.33
2019-05-16T13:32:18.074Z,20.13
2019-05-16T13:34:49.962Z,19.93
2019-05-16T13:37:23.199Z,19.79
2019-05-16T13:39:56.885Z,19.68
2019-05-16T13:42:28.787Z,19.51
2019-05-16T13:45:01.382Z,19.37
2019-05-16T13:47:33.237Z,19.19
2019-05-16T13:50:12.240Z,19.01
2019-05-16T13:52:41.636Z,18.82
2019-05-16T13:55:16.734Z,18.61
2019-05-16T13:57:48.188Z,18.49
2019-05-16T14:00:20.880Z,18.33
2019-05-16T14:02:52.441Z,19.17
2019-05-16T14:05:26.627Z,20.51
2019-05-16T14:07:57.738Z,20.85
2019-05-16T14:10:30.020Z,20.54
2019-05-16T14:13:02.214Z,20.32
2019-05-16T14:15:36.558Z,20.12
2019-05-16T14:18:07.970Z,19.98
2019-05-16T14:20:40.227Z,19.86
2019-05-16T14:23:11.989Z,19.70
2019-05-16T14:25:48.171Z,19.54
2019-05-16T14:28:19.161Z,19.36
2019-05-16T14:30:50.907Z,19.23
2019-05-16T14:33:22.687Z,19.10
2019-05-16T14:35:56.392Z,18.99
2019-05-16T14:38:27.805Z,18.87
2019-05-16T14:41:00.516Z,18.74
2019-05-16T14:43:32.247Z,19.44
2019-05-16T14:46:07.050Z,20.70
2019-05-16T14:48:37.284Z,20.98
2019-05-16T14:51:10.238Z,20.58
2019-05-16T14:53:42.033Z,20.30
2019-05-16T14:56:15.201Z,20.01
2019-05-16T14:58:48.761Z,19.74
2019-05-16T15:01:23.388Z,19.50
2019-05-16T15:03:56.511Z,19.26
2019-05-16T15:06:28.794Z,19.01
2019-05-16T15:09:00.556Z,18.77
2019-05-16T15:11:33.780Z,18.52
2019-05-16T15:14:07.060Z,18.33
2019-05-16T15:16:39.167Z,18.91
2019-05-16T15:19:10.947Z,20.09
2019-05-16T15:21:42.702Z,21.03
2019-05-16T15:24:17.523Z,21.13
2019-05-16T15:26:47.997Z,20.65
2019-05-16T15:29:19.761Z,20.26
2019-05-16T15:31:51.527Z,19.89
2019-05-16T15:34:24.152Z,19.58
2019-05-16T15:36:56.474Z,19.26
2019-05-16T15:39:29.259Z,18.95
2019-05-16T15:42:01.970Z,18.66
2019-05-16T15:44:33.818Z,18.39
2019-05-16T15:47:08.118Z,18.18
2019-05-16T15:49:38.836Z,18.77
2019-05-16T15:52:11.509Z,19.89
2019-05-16T15:54:45.013Z,20.86
2019-05-16T15:57:17.629Z,20.67
2019-05-16T15:59:49.509Z,20.13
2019-05-16T16:02:21.271Z,19.68
2019-05-16T16:04:53.033Z,19.30
2019-05-16T16:07:27.078Z,19.01
2019-05-16T16:09:58.389Z,18.67
2019-05-16T16:12:30.193Z,18.40
2019-05-16T16:15:02.244Z,18.09
2019-05-16T16:17:37.687Z,17.85
2019-05-16T16:20:10.350Z,18.39
2019-05-16T16:22:41.768Z,19.57
2019-05-16T16:25:13.544Z,20.52
2019-05-16T16:27:45.332Z,20.54
2019-05-16T16:30:18.674Z,19.99
2019-05-16T16:32:50.964Z,19.53
2019-05-16T16:35:23.085Z,19.15
2019-05-16T16:37:57.311Z,18.78
2019-05-16T16:40:28.835Z,18.47
2019-05-16T16:43:01.339Z,18.16
2019-05-16T16:45:32.913Z,17.90
2019-05-16T16:48:07.319Z,18.44
2019-05-16T16:50:38.161Z,19.57
2019-05-16T16:53:10.166Z,20.54
2019-05-16T16:55:42.154Z,20.46
2019-05-16T16:58:14.207Z,19.89
2019-05-16T17:00:47.743Z,19.40
2019-05-16T17:03:19.712Z,19.03
2019-05-16T17:05:51.706Z,18.70
2019-05-16T17:08:23.546Z,18.36
2019-05-16T17:10:57.573Z,18.05
2019-05-16T17:13:30.411Z,18.43
2019-05-16T17:16:02.271Z,19.53
2019-05-16T17:18:36.744Z,20.44
2019-05-16T17:21:08.212Z,20.39
2019-05-16T17:23:40.374Z,19.78
2019-05-16T17:26:12.048Z,19.30
2019-05-16T17:28:46.788Z,18.92
2019-05-16T17:31:18.828Z,18.50
2019-05-16T17:33:50.641Z,18.18
2019-05-16T17:36:22.388Z,17.88
2019-05-16T17:38:54.247Z,18.32
2019-05-16T17:41:27.337Z,19.37
2019-05-16T17:43:59.563Z,20.29
2019-05-16T17:46:36.854Z,20.29
2019-05-16T17:49:07.458Z,19.72
2019-05-16T17:51:39.478Z,19.22
2019-05-16T17:54:11.243Z,18.80
2019-05-16T17:56:44.232Z,18.36
2019-05-16T17:59:17.125Z,18.02
2019-05-16T18:01:48.910Z,17.67
2019-05-16T18:04:20.675Z,17.46
2019-05-16T18:06:52.422Z,18.33
2019-05-16T18:09:24.250Z,19.42
2019-05-16T18:11:57.438Z,20.23
2019-05-16T18:14:29.292Z,20.16
2019-05-16T18:17:02.564Z,19.56
2019-05-16T18:19:34.325Z,19.03
2019-05-16T18:22:08.170Z,18.54
2019-05-16T18:24:39.728Z,18.16
2019-05-16T18:27:11.478Z,17.81
2019-05-16T18:29:43.244Z,17.47
2019-05-16T18:32:17.068Z,17.15
2019-05-16T18:34:48.528Z,17.74
2019-05-16T18:37:20.284Z,18.81
2019-05-16T18:39:53.312Z,19.74
2019-05-16T18:42:27.483Z,19.78
2019-05-16T18:44:58.792Z,19.19
2019-05-16T18:47:30.758Z,18.66
2019-05-16T18:50:02.531Z,18.23
2019-05-16T18:52:37.448Z,17.84
2019-05-16T18:55:11.170Z,17.54
2019-05-16T18:57:42.830Z,17.95
2019-05-16T19:00:17.801Z,19.02
2019-05-16T19:02:49.996Z,19.91
2019-05-16T19:05:42.419Z,19.95
2019-05-16T19:08:16.196Z,19.29
2019-05-16T19:10:48.440Z,18.74
2019-05-16T19:13:20.098Z,18.29
2019-05-16T19:15:52.007Z,17.90
2019-05-16T19:18:23.760Z,17.56
2019-05-16T19:20:57.274Z,17.99
2019-05-16T19:23:32.569Z,19.05
2019-05-16T19:26:07.310Z,19.85
2019-05-16T19:28:40.155Z,20.64
2019-05-16T19:31:12.972Z,20.50
2019-05-16T19:33:48.557Z,19.81
2019-05-16T19:36:20.297Z,19.21
2019-05-16T19:38:51.937Z,18.74
2019-05-16T19:41:29.511Z,18.29
2019-05-16T19:44:13.499Z,17.85
2019-05-16T19:46:41.685Z,18.25
2019-05-16T19:49:15.519Z,19.30
2019-05-16T19:51:49.080Z,20.13
2019-05-16T19:54:27.010Z,20.84
2019-05-16T19:57:07.148Z,20.62
2019-05-16T19:59:39.238Z,19.93
2019-05-16T20:02:10.657Z,19.32
2019-05-16T20:04:46.935Z,18.82
2019-05-16T20:07:18.275Z,18.35
2019-05-16T20:09:52.691Z,17.90
2019-05-16T20:12:26.188Z,17.50
2019-05-16T20:15:08.228Z,17.97
2019-05-16T20:17:50.945Z,19.02
2019-05-16T20:20:12.547Z,19.88
2019-05-16T20:22:49.097Z,20.61
2019-05-16T20:25:27.160Z,20.44
2019-05-16T20:28:03.753Z,19.70
2019-05-16T20:30:37.139Z,19.15
2019-05-16T20:33:17.885Z,18.61
2019-05-16T20:35:53.234Z,18.15
2019-05-16T20:38:27.546Z,17.76
2019-05-16T20:41:04.118Z,18.13
2019-05-16T20:43:36.907Z,19.13
2019-05-16T20:46:09.719Z,19.98
2019-05-16T20:48:49.314Z,20.70
2019-05-16T20:51:21.083Z,20.48
2019-05-16T20:53:52.822Z,19.81
2019-05-16T20:56:26.546Z,19.22
2019-05-16T20:59:02.573Z,18.68
2019-05-16T21:01:35.894Z,18.22
2019-05-16T21:04:11.393Z,17.78
2019-05-16T21:07:00.017Z,18.25
2019-05-16T21:09:18.413Z,19.26
2019-05-16T21:11:50.238Z,20.09
2019-05-16T21:14:26.928Z,20.78
2019-05-16T21:17:03.879Z,20.57
2019-05-16T21:19:40.089Z,19.84
2019-05-16T21:22:16.277Z,19.25
2019-05-16T21:24:57.142Z,18.70
2019-05-16T21:27:38.005Z,18.20
2019-05-16T21:30:10.655Z,17.80
2019-05-16T21:32:56.535Z,18.20
2019-05-16T21:35:31.808Z,19.29
2019-05-16T21:38:08.760Z,20.12
2019-05-16T21:40:41.424Z,20.08
2019-05-16T21:43:16.834Z,19.42
2019-05-16T21:45:51.699Z,18.81
2019-05-16T21:48:27.453Z,18.29
2019-05-16T21:50:58.139Z,17.85
2019-05-16T21:53:30.153Z,17.43
2019-05-16T21:56:01.997Z,17.87
2019-05-16T21:58:33.745Z,18.87
2019-05-16T22:01:14.116Z,19.72
2019-05-16T22:03:48.644Z,20.47
2019-05-16T22:06:20.416Z,20.26
2019-05-16T22:08:52.499Z,19.60
2019-05-16T22:11:26.280Z,19.01
2019-05-16T22:13:59.360Z,18.44
2019-05-16T22:16:31.774Z,17.98
2019-05-16T22:19:03.426Z,17.56
2019-05-16T22:21:35.842Z,17.97
2019-05-16T22:24:07.648Z,18.97
2019-05-16T22:26:39.366Z,19.78
2019-05-16T22:29:11.115Z,20.51
2019-05-16T22:31:44.366Z,20.29
2019-05-16T22:34:16.935Z,19.58
2019-05-16T22:36:49.407Z,18.98
2019-05-16T22:39:21.220Z,18.44
2019-05-16T22:41:52.974Z,18.02
2019-05-16T22:44:26.950Z,17.60
2019-05-16T22:47:00.034Z,18.05
2019-05-16T22:49:31.885Z,19.03
2019-05-16T22:52:03.626Z,19.85
2019-05-16T22:54:37.109Z,20.58
2019-05-16T22:57:09.071Z,20.39
2019-05-16T22:59:40.841Z,19.65
2019-05-16T23:02:13.324Z,19.08
2019-05-16T23:04:47.311Z,18.53
2019-05-16T23:07:22.507Z,18.07
2019-05-16T23:09:56.298Z,17.63
2019-05-16T23:12:29.421Z,17.98
2019-05-16T23:15:01.159Z,18.95
2019-05-16T23:17:32.921Z,19.81
2019-05-16T23:20:06.354Z,20.50
2019-05-16T23:22:38.188Z,20.32
2019-05-16T23:25:10.694Z,19.64
2019-05-16T23:27:42.439Z,19.03
2019-05-16T23:30:16.469Z,18.50
2019-05-16T23:32:48.719Z,18.07
2019-05-16T23:35:20.472Z,17.63
2019-05-16T23:37:52.214Z,18.04
2019-05-16T23:40:23.961Z,19.06
2019-05-16T23:42:56.943Z,19.85
2019-05-16T23:45:28.730Z,20.57
2019-05-16T23:48:00.477Z,20.39
2019-05-16T23:50:32.227Z,19.64
2019-05-16T23:53:07.250Z,19.03
2019-05-16T23:55:42.029Z,18.47
2019-05-16T23:58:13.682Z,17.97
